Time;durP1;ratioP1;P1;durP2;ratioP2;P2;SDS_P1;SDS_P2;PMS_P1;PMS_P2;Temp;Humidity;BMP_temperature;BMP_pressure;BME280_temperature;BME280_humidity;BME280_pressure;Samples;Min_cycle;Max_cycle;Signal;HPM_P1;HPM_P2
2022/12/09 00:01:04;;;;;;;;;;;15.20;47.40;;;;;;5114948;27;19919;-67
2022/12/09 00:03:30;;;;;;;;;;;15.20;46.70;;;;;;5133328;27;19930;-67
2022/12/09 00:05:55;;;;;;;;;;;15.20;46.70;;;;;;5115169;27;19919;-67
2022/12/09 00:08:21;;;;;;;;;;;15.20;46.70;;;;;;5114907;28;19919;-68
2022/12/09 00:10:46;;;;;;;;;;;15.20;46.70;;;;;;5132917;27;19931;-67
2022/12/09 00:13:12;;;;;;;;;;;15.10;46.70;;;;;;5114791;28;19968;-75
2022/12/09 00:15:39;;;;;;;;;;;15.10;46.70;;;;;;5114712;28;19919;-68
2022/12/09 00:18:05;;;;;;;;;;;15.20;46.60;;;;;;5133170;28;19919;-68
2022/12/09 00:20:30;;;;;;;;;;;15.30;46.40;;;;;;5114706;28;19927;-67
2022/12/09 00:22:56;;;;;;;;;;;15.40;46.20;;;;;;5114794;28;19923;-68
2022/12/09 00:25:21;;;;;;;;;;;15.50;46.00;;;;;;5133097;28;19919;-68
2022/12/09 00:27:47;;;;;;;;;;;15.50;45.70;;;;;;5114790;28;19926;-68
2022/12/09 00:30:12;;;;;;;;;;;15.60;45.60;;;;;;5133033;28;20006;-76
2022/12/09 00:32:38;;;;;;;;;;;15.60;45.50;;;;;;5116950;27;19993;-68
2022/12/09 00:35:04;;;;;;;;;;;15.70;45.30;;;;;;5119226;27;20002;-67
2022/12/09 00:37:29;;;;;;;;;;;16.10;44.90;;;;;;5137233;27;19977;-67
2022/12/09 00:39:55;;;;;;;;;;;16.50;44.10;;;;;;5137235;27;19941;-67
2022/12/09 00:42:20;;;;;;;;;;;17.00;43.20;;;;;;5137176;27;19920;-68
2022/12/09 00:44:46;;;;;;;;;;;17.60;42.20;;;;;;5118687;27;19930;-68
2022/12/09 00:47:11;;;;;;;;;;;18.20;41.00;;;;;;5118403;27;19923;-67
2022/12/09 00:49:37;;;;;;;;;;;18.90;39.80;;;;;;5136610;27;19973;-68
2022/12/09 00:52:02;;;;;;;;;;;19.60;38.50;;;;;;5118454;27;19988;-67
2022/12/09 00:54:28;;;;;;;;;;;20.30;37.30;;;;;;5118463;27;19930;-68
2022/12/09 00:56:55;;;;;;;;;;;21.00;36.30;;;;;;5136831;27;19926;-67
2022/12/09 00:59:24;;;;;;;;;;;21.50;35.40;;;;;;5136611;27;19924;-67
2022/12/09 01:01:49;;;;;;;;;;;21.80;34.70;;;;;;5136651;27;19946;-68
2022/12/09 01:04:16;;;;;;;;;;;22.10;34.20;;;;;;5118247;27;20375;-68
2022/12/09 01:06:41;;;;;;;;;;;22.30;34.00;;;;;;5136829;27;19923;-68
2022/12/09 01:09:07;;;;;;;;;;;22.30;33.80;;;;;;5118274;27;20052;-68
2022/12/09 01:11:33;;;;;;;;;;;22.20;33.90;;;;;;5102331;28;19946;-67
2022/12/09 01:13:59;;;;;;;;;;;22.00;34.00;;;;;;5077690;28;19966;-68
2022/12/09 01:16:26;;;;;;;;;;;21.90;34.30;;;;;;5095556;28;19920;-68
2022/12/09 01:18:52;;;;;;;;;;;21.60;34.60;;;;;;5077534;28;19927;-68
2022/12/09 01:21:18;;;;;;;;;;;21.40;34.90;;;;;;5077243;28;19970;-68
2022/12/09 01:23:44;;;;;;;;;;;21.20;35.20;;;;;;5077164;28;19923;-68
2022/12/09 01:26:10;;;;;;;;;;;20.90;35.50;;;;;;5091466;28;20007;-68
2022/12/09 01:28:37;;;;;;;;;;;20.70;35.90;;;;;;5076865;28;19943;-68
2022/12/09 01:31:05;;;;;;;;;;;20.40;36.10;;;;;;5077214;28;19923;-68
2022/12/09 01:33:30;;;;;;;;;;;20.30;36.50;;;;;;5077274;28;19919;-68
2022/12/09 01:35:56;;;;;;;;;;;20.10;36.80;;;;;;5076980;28;20014;-68
2022/12/09 01:38:21;;;;;;;;;;;19.90;37.10;;;;;;5076814;28;19920;-68
2022/12/09 01:40:47;;;;;;;;;;;19.70;37.30;;;;;;5077201;28;19920;-68
2022/12/09 01:43:17;;;;;;;;;;;19.60;37.60;;;;;;5094504;28;20236;-68
2022/12/09 01:45:43;;;;;;;;;;;19.40;37.80;;;;;;5077117;28;19963;-68
2022/12/09 01:48:12;;;;;;;;;;;19.30;38.10;;;;;;5094858;28;19927;-68
2022/12/09 01:50:40;;;;;;;;;;;19.10;38.30;;;;;;5094762;28;19928;-68
2022/12/09 01:53:06;;;;;;;;;;;19.00;38.50;;;;;;5094747;28;19927;-68
2022/12/09 01:55:32;;;;;;;;;;;18.80;38.80;;;;;;5094891;28;19920;-68
2022/12/09 01:57:57;;;;;;;;;;;18.70;39.00;;;;;;5076834;28;19924;-68
2022/12/09 02:00:23;;;;;;;;;;;18.50;39.20;;;;;;5076462;28;20387;-68
2022/12/09 02:02:49;;;;;;;;;;;18.50;39.40;;;;;;5076766;28;19920;-68
2022/12/09 02:05:14;;;;;;;;;;;18.50;39.40;;;;;;5094489;28;20027;-68
2022/12/09 02:07:40;;;;;;;;;;;18.70;39.20;;;;;;5076420;28;19920;-67
2022/12/09 02:10:09;;;;;;;;;;;18.90;38.80;;;;;;5076231;28;20111;-67
2022/12/09 02:12:40;;;;;;;;;;;19.00;38.50;;;;;;5110669;28;19966;-67
2022/12/09 02:15:08;;;;;;;;;;;19.20;38.20;;;;;;5114704;28;19920;-67
2022/12/09 02:20:22;;;;;;;;;;;19.50;37.80;;;;;;5110254;27;19919;-67
2022/12/09 02:22:56;;;;;;;;;;;19.60;37.40;;;;;;5108970;28;19975;-68
2022/12/09 02:25:28;;;;;;;;;;;19.70;37.30;;;;;;5108868;28;20371;-68
2022/12/09 02:28:14;;;;;;;;;;;19.70;37.00;;;;;;5108897;28;19960;-68
2022/12/09 02:30:49;;;;;;;;;;;19.80;36.90;;;;;;5108578;28;19920;-67
2022/12/09 02:33:23;;;;;;;;;;;19.80;36.90;;;;;;5108814;28;19933;-67
2022/12/09 02:35:52;;;;;;;;;;;19.70;36.90;;;;;;5108898;28;19994;-76
2022/12/09 02:38:20;;;;;;;;;;;19.70;37.00;;;;;;5108594;28;19932;-67
2022/12/09 02:40:49;;;;;;;;;;;19.60;37.00;;;;;;5109799;28;20371;-68
2022/12/09 02:43:16;;;;;;;;;;;19.60;37.10;;;;;;5109890;28;19920;-68
2022/12/09 02:45:42;;;;;;;;;;;19.50;37.10;;;;;;5108462;28;19920;-68
2022/12/09 02:48:09;;;;;;;;;;;19.50;37.20;;;;;;5109820;28;19920;-68
2022/12/09 02:50:36;;;;;;;;;;;19.50;37.20;;;;;;5142760;27;19955;-68
2022/12/09 02:53:04;;;;;;;;;;;19.40;37.20;;;;;;5108574;28;19920;-68
2022/12/09 02:55:31;;;;;;;;;;;19.40;37.30;;;;;;5109508;28;19927;-68
2022/12/09 02:57:58;;;;;;;;;;;19.40;37.30;;;;;;5108156;28;19920;-68
2022/12/09 03:00:23;;;;;;;;;;;19.30;37.30;;;;;;5108174;28;20413;-67
2022/12/09 03:02:52;;;;;;;;;;;19.30;37.40;;;;;;5108528;28;19932;-68
2022/12/09 03:05:22;;;;;;;;;;;19.30;37.50;;;;;;5109411;28;20008;-67
2022/12/09 03:10:33;;;;;;;;;;;19.20;37.40;;;;;;5110264;27;19912;-68
2022/12/09 03:13:02;;;;;;;;;;;19.20;37.40;;;;;;5108988;28;19920;-68
2022/12/09 03:15:30;;;;;;;;;;;19.20;37.40;;;;;;5109173;28;20407;-67
2022/12/09 03:17:57;;;;;;;;;;;19.20;37.40;;;;;;5108895;28;20015;-68
2022/12/09 03:20:25;;;;;;;;;;;19.20;37.40;;;;;;5108876;28;19965;-68
2022/12/09 03:22:52;;;;;;;;;;;19.20;37.40;;;;;;5108590;28;20014;-68
2022/12/09 03:25:22;;;;;;;;;;;19.20;37.40;;;;;;5143465;27;19920;-68
2022/12/09 03:30:30;;;;;;;;;;;19.20;37.30;;;;;;5110342;27;20364;-68
2022/12/09 03:32:55;;;;;;;;;;;19.20;37.20;;;;;;5110589;28;19920;-68
2022/12/09 03:35:23;;;;;;;;;;;19.20;37.20;;;;;;5092152;28;19920;-67
2022/12/09 03:37:50;;;;;;;;;;;19.20;37.20;;;;;;5108787;28;20008;-67
2022/12/09 03:40:17;;;;;;;;;;;19.20;37.10;;;;;;5109070;28;20343;-68
2022/12/09 03:42:46;;;;;;;;;;;19.30;37.10;;;;;;5108986;28;19920;-68
2022/12/09 03:45:14;;;;;;;;;;;19.30;37.10;;;;;;5108692;28;19927;-68
2022/12/09 03:47:39;;;;;;;;;;;19.20;37.10;;;;;;5108596;28;19920;-68
2022/12/09 03:50:06;;;;;;;;;;;19.20;37.10;;;;;;5108578;28;19930;-68
2022/12/09 03:52:36;;;;;;;;;;;19.20;37.10;;;;;;5143140;27;19927;-68
2022/12/09 03:55:08;;;;;;;;;;;19.30;37.20;;;;;;5108641;28;19969;-68
2022/12/09 03:57:35;;;;;;;;;;;19.20;37.10;;;;;;5143148;27;20321;-75
2022/12/09 04:00:01;;;;;;;;;;;19.30;37.10;;;;;;5108407;28;20057;-68
2022/12/09 04:02:27;;;;;;;;;;;19.30;37.00;;;;;;5108851;28;20014;-76
2022/12/09 04:04:53;;;;;;;;;;;19.40;36.90;;;;;;5108335;28;19927;-68
2022/12/09 04:07:18;;;;;;;;;;;19.40;36.90;;;;;;5108278;28;19920;-68
2022/12/09 04:09:44;;;;;;;;;;;19.40;36.80;;;;;;5108502;28;19978;-67
2022/12/09 04:12:09;;;;;;;;;;;19.40;36.80;;;;;;5108420;28;20406;-68
2022/12/09 04:14:35;;;;;;;;;;;19.40;36.70;;;;;;5108160;28;20038;-68
2022/12/09 04:17:01;;;;;;;;;;;19.40;36.60;;;;;;5108164;28;19920;-68
2022/12/09 04:19:26;;;;;;;;;;;19.40;36.60;;;;;;5109241;28;19963;-75
2022/12/09 04:21:52;;;;;;;;;;;19.40;36.60;;;;;;5108386;28;19920;-68
2022/12/09 04:24:17;;;;;;;;;;;19.40;36.60;;;;;;5108191;28;20360;-68
2022/12/09 04:26:43;;;;;;;;;;;19.40;36.50;;;;;;5107924;28;20371;-68
2022/12/09 04:29:09;;;;;;;;;;;19.40;36.50;;;;;;5107678;28;19924;-68
2022/12/09 04:31:35;;;;;;;;;;;19.40;36.50;;;;;;5107852;28;19920;-68
2022/12/09 04:34:01;;;;;;;;;;;19.40;36.50;;;;;;5107923;28;19920;-68
2022/12/09 04:36:26;;;;;;;;;;;19.40;36.50;;;;;;5107888;28;19927;-68
2022/12/09 04:38:52;;;;;;;;;;;19.50;36.50;;;;;;5142192;27;19920;-68
2022/12/09 04:41:17;;;;;;;;;;;19.50;36.50;;;;;;5098322;28;19921;-68
2022/12/09 04:43:43;;;;;;;;;;;19.40;36.40;;;;;;5128403;27;19924;-68
2022/12/09 04:46:10;;;;;;;;;;;19.40;36.50;;;;;;5094021;28;20406;-67
2022/12/09 04:48:35;;;;;;;;;;;19.40;36.50;;;;;;5095130;28;19931;-68
2022/12/09 04:51:01;;;;;;;;;;;19.40;36.40;;;;;;5095167;28;19920;-68
2022/12/09 04:53:27;;;;;;;;;;;19.40;36.40;;;;;;5093885;28;19973;-68
2022/12/09 04:56:10;;;;;;;;;;;19.40;36.40;;;;;;5095076;28;19920;-68
2022/12/09 04:58:36;;;;;;;;;;;19.40;36.40;;;;;;5073559;28;19927;-68
2022/12/09 05:01:12;;;;;;;;;;;19.40;36.40;;;;;;5073325;28;19921;-68
2022/12/09 05:03:38;;;;;;;;;;;19.40;36.40;;;;;;5073342;28;19927;-68
2022/12/09 05:06:05;;;;;;;;;;;19.40;36.40;;;;;;5074616;28;19920;-67
2022/12/09 05:08:30;;;;;;;;;;;19.40;36.40;;;;;;5073249;28;19929;-67
2022/12/09 05:10:56;;;;;;;;;;;19.40;36.40;;;;;;5090114;28;19921;-68
2022/12/09 05:13:21;;;;;;;;;;;19.40;36.40;;;;;;5107420;28;19924;-67
2022/12/09 05:15:47;;;;;;;;;;;19.50;36.40;;;;;;5073468;28;20388;-68
2022/12/09 05:18:15;;;;;;;;;;;19.50;36.30;;;;;;5090334;28;20014;-68
2022/12/09 05:20:41;;;;;;;;;;;19.50;36.30;;;;;;5089947;28;19920;-68
2022/12/09 05:23:07;;;;;;;;;;;19.50;36.20;;;;;;5074531;28;20016;-68
2022/12/09 05:25:32;;;;;;;;;;;19.60;36.20;;;;;;5074403;28;20021;-68
2022/12/09 05:27:58;;;;;;;;;;;19.60;36.10;;;;;;5106836;28;19972;-68
2022/12/09 05:30:23;;;;;;;;;;;19.60;36.00;;;;;;5072524;28;19939;-68
2022/12/09 05:32:49;;;;;;;;;;;19.60;35.90;;;;;;5074128;28;19927;-76
2022/12/09 05:35:14;;;;;;;;;;;19.70;36.00;;;;;;5073006;28;19989;-75
2022/12/09 05:37:40;;;;;;;;;;;19.60;35.80;;;;;;5073288;28;19954;-68
2022/12/09 05:40:06;;;;;;;;;;;19.70;35.80;;;;;;5106598;28;20002;-68
2022/12/09 05:42:31;;;;;;;;;;;19.70;35.80;;;;;;5072610;28;20043;-68
2022/12/09 05:44:57;;;;;;;;;;;19.70;35.70;;;;;;5089538;28;19982;-68
2022/12/09 05:47:22;;;;;;;;;;;19.70;35.70;;;;;;5072810;28;19981;-67
2022/12/09 05:49:48;;;;;;;;;;;19.70;35.70;;;;;;5072382;28;19924;-68
2022/12/09 05:52:13;;;;;;;;;;;19.70;35.60;;;;;;5071632;28;19931;-68
2022/12/09 05:54:39;;;;;;;;;;;19.70;35.70;;;;;;5072494;28;19975;-68
2022/12/09 05:57:05;;;;;;;;;;;19.70;35.70;;;;;;5080740;28;20020;-68
2022/12/09 05:59:30;;;;;;;;;;;19.80;35.70;;;;;;5092838;28;19928;-68
2022/12/09 06:01:56;;;;;;;;;;;19.70;35.70;;;;;;5092733;28;20422;-68
2022/12/09 06:04:21;;;;;;;;;;;19.60;35.60;;;;;;5092364;28;20387;-68
2022/12/09 06:06:47;;;;;;;;;;;19.60;35.70;;;;;;5092314;28;19927;-68
2022/12/09 06:09:12;;;;;;;;;;;19.60;35.70;;;;;;5092414;28;19930;-68
2022/12/09 06:11:38;;;;;;;;;;;19.60;35.70;;;;;;5093648;28;19927;-68
2022/12/09 06:14:06;;;;;;;;;;;19.60;35.70;;;;;;5092416;28;20049;-67
2022/12/09 06:16:31;;;;;;;;;;;19.60;35.70;;;;;;5092510;28;20010;-68
2022/12/09 06:18:57;;;;;;;;;;;19.60;35.80;;;;;;5092483;28;20014;-68
2022/12/09 06:21:23;;;;;;;;;;;19.60;35.80;;;;;;5092406;28;20335;-68
2022/12/09 06:23:48;;;;;;;;;;;19.60;35.80;;;;;;5092552;28;20348;-72
2022/12/09 06:26:16;;;;;;;;;;;19.60;35.70;;;;;;5092383;28;20383;-75
2022/12/09 06:28:41;;;;;;;;;;;19.60;35.70;;;;;;5091952;28;20233;-68
2022/12/09 06:31:07;;;;;;;;;;;19.60;35.80;;;;;;5092262;28;19970;-68
2022/12/09 06:33:32;;;;;;;;;;;19.50;35.70;;;;;;5092231;28;19921;-68
2022/12/09 06:35:59;;;;;;;;;;;19.50;35.70;;;;;;5091993;28;19920;-69
2022/12/09 06:38:25;;;;;;;;;;;19.50;35.70;;;;;;5092602;28;19920;-68
2022/12/09 06:40:50;;;;;;;;;;;19.60;35.70;;;;;;5092117;28;20007;-68
2022/12/09 06:43:16;;;;;;;;;;;19.80;35.70;;;;;;5090641;28;20421;-69
2022/12/09 06:45:41;;;;;;;;;;;20.30;36.00;;;;;;5090394;28;19920;-72
2022/12/09 06:48:07;;;;;;;;;;;20.90;36.20;;;;;;5121411;27;19926;-72
2022/12/09 06:50:32;;;;;;;;;;;21.50;35.70;;;;;;5090853;28;19926;-67
2022/12/09 06:52:58;;;;;;;;;;;22.30;34.80;;;;;;5092682;28;20260;-67
2022/12/09 06:55:23;;;;;;;;;;;22.60;33.90;;;;;;5089359;28;20328;-67
2022/12/09 06:57:49;;;;;;;;;;;22.60;33.50;;;;;;5090167;28;20461;-67
2022/12/09 07:00:15;;;;;;;;;;;22.60;33.70;;;;;;5086179;28;20408;-67
2022/12/09 07:02:40;;;;;;;;;;;22.60;33.80;;;;;;5087367;28;20023;-70
2022/12/09 07:05:06;;;;;;;;;;;22.50;33.90;;;;;;5082426;28;19925;-67
2022/12/09 07:07:31;;;;;;;;;;;22.30;34.10;;;;;;5087610;28;19942;-67
2022/12/09 07:09:57;;;;;;;;;;;22.10;34.30;;;;;;5115237;27;19924;-67
2022/12/09 07:12:22;;;;;;;;;;;21.90;34.70;;;;;;5079954;28;19932;-68
2022/12/09 07:14:48;;;;;;;;;;;21.60;35.10;;;;;;5086112;28;20334;-67
2022/12/09 07:17:15;;;;;;;;;;;21.40;35.40;;;;;;5087046;28;19978;-67
2022/12/09 07:19:40;;;;;;;;;;;21.30;36.30;;;;;;5088087;28;19924;-68
2022/12/09 07:22:06;;;;;;;;;;;21.10;35.90;;;;;;5087556;28;19977;-67
2022/12/09 07:24:31;;;;;;;;;;;21.00;36.10;;;;;;5086192;28;20414;-67
2022/12/09 07:26:57;;;;;;;;;;;20.90;36.20;;;;;;5088594;28;19919;-67
2022/12/09 07:29:22;;;;;;;;;;;20.70;36.20;;;;;;5083625;28;19928;-68
2022/12/09 07:31:48;;;;;;;;;;;20.60;36.40;;;;;;5068671;28;19939;-67
2022/12/09 07:34:14;;;;;;;;;;;20.50;36.70;;;;;;5067850;28;19928;-67
2022/12/09 07:36:40;;;;;;;;;;;20.30;36.80;;;;;;5072884;28;20295;-68
2022/12/09 07:39:11;;;;;;;;;;;20.20;37.00;;;;;;5072143;28;20541;-67
2022/12/09 07:41:36;;;;;;;;;;;20.10;36.90;;;;;;5074262;28;20426;-68
2022/12/09 07:44:02;;;;;;;;;;;20.10;37.60;;;;;;5067878;28;19925;-67
2022/12/09 07:46:27;;;;;;;;;;;20.10;36.90;;;;;;5070735;28;19924;-67
2022/12/09 07:48:53;;;;;;;;;;;20.10;36.90;;;;;;5074008;28;19980;-67
2022/12/09 07:51:19;;;;;;;;;;;20.10;36.90;;;;;;5071905;28;19928;-70
2022/12/09 07:53:45;;;;;;;;;;;20.10;36.90;;;;;;5102578;28;20288;-70
2022/12/09 07:56:13;;;;;;;;;;;20.10;36.60;;;;;;5070392;28;20565;-70
2022/12/09 07:58:39;;;;;;;;;;;20.20;36.70;;;;;;5074430;28;19924;-72
2022/12/09 08:01:06;;;;;;;;;;;20.20;36.60;;;;;;5051220;28;20456;-71
2022/12/09 08:03:32;;;;;;;;;;;20.10;36.60;;;;;;5066007;28;20056;-72
2022/12/09 08:05:57;;;;;;;;;;;20.20;36.70;;;;;;5067184;28;20371;-70
2022/12/09 08:08:23;;;;;;;;;;;20.30;36.90;;;;;;5097849;28;19924;-70
2022/12/09 08:10:48;;;;;;;;;;;20.50;36.90;;;;;;5064583;28;19935;-70
2022/12/09 08:13:14;;;;;;;;;;;20.60;36.70;;;;;;5067837;28;19929;-70
2022/12/09 08:15:39;;;;;;;;;;;20.70;36.80;;;;;;5069277;28;20843;-71
2022/12/09 08:18:05;;;;;;;;;;;20.70;36.90;;;;;;5071882;28;19924;-73
2022/12/09 08:20:30;;;;;;;;;;;20.70;36.80;;;;;;5069583;28;19924;-68
2022/12/09 08:22:56;;;;;;;;;;;20.80;36.80;;;;;;5070229;28;19924;-69
2022/12/09 08:25:22;;;;;;;;;;;20.90;36.70;;;;;;5070843;28;19928;-70
2022/12/09 08:27:48;;;;;;;;;;;20.90;36.70;;;;;;5106501;27;19921;-69
2022/12/09 08:30:14;;;;;;;;;;;20.80;36.90;;;;;;5093434;28;19932;-70
2022/12/09 08:32:39;;;;;;;;;;;20.80;37.20;;;;;;5110556;27;20358;-70
2022/12/09 08:35:06;;;;;;;;;;;20.70;37.30;;;;;;5092980;28;19920;-70
2022/12/09 08:37:31;;;;;;;;;;;20.70;37.50;;;;;;5080362;28;19932;-70
2022/12/09 08:39:57;;;;;;;;;;;20.70;37.60;;;;;;5094624;28;20032;-71
2022/12/09 08:42:22;;;;;;;;;;;20.70;37.70;;;;;;5089365;28;19930;-70
2022/12/09 08:44:49;;;;;;;;;;;20.70;37.50;;;;;;5088252;28;19948;-74
2022/12/09 08:47:15;;;;;;;;;;;20.70;37.50;;;;;;5106505;27;19931;-71
2022/12/09 08:49:40;;;;;;;;;;;20.70;37.30;;;;;;5078305;28;19924;-73
2022/12/09 08:52:06;;;;;;;;;;;20.80;37.20;;;;;;5074521;28;19924;-73
2022/12/09 08:54:31;;;;;;;;;;;20.80;37.10;;;;;;5093257;28;19984;-71
2022/12/09 08:56:57;;;;;;;;;;;20.80;37.20;;;;;;5077851;28;19950;-70
2022/12/09 08:59:23;;;;;;;;;;;20.90;37.20;;;;;;5081184;28;19931;-74
2022/12/09 09:01:49;;;;;;;;;;;20.90;37.20;;;;;;5090828;28;19926;-72
2022/12/09 09:04:16;;;;;;;;;;;20.80;37.10;;;;;;5074178;28;19924;-73
2022/12/09 09:06:43;;;;;;;;;;;20.90;37.10;;;;;;5080762;28;19931;-71
2022/12/09 09:09:10;;;;;;;;;;;21.00;37.10;;;;;;5106702;27;19928;-70
2022/12/09 09:11:36;;;;;;;;;;;21.00;37.10;;;;;;5094084;28;19924;-70
2022/12/09 09:14:03;;;;;;;;;;;21.00;37.10;;;;;;5077394;28;19924;-69
2022/12/09 09:16:28;;;;;;;;;;;20.90;37.30;;;;;;5073020;28;19935;-69
2022/12/09 09:18:54;;;;;;;;;;;20.90;37.50;;;;;;5090357;28;19924;-69
2022/12/09 09:21:20;;;;;;;;;;;20.80;37.60;;;;;;5074242;28;20482;-72
2022/12/09 09:23:46;;;;;;;;;;;20.80;37.60;;;;;;5082206;28;20467;-70
2022/12/09 09:26:13;;;;;;;;;;;20.70;37.70;;;;;;5074537;28;19920;-69
2022/12/09 09:28:39;;;;;;;;;;;20.70;38.10;;;;;;5079657;28;19931;-69
2022/12/09 09:31:06;;;;;;;;;;;20.60;38.50;;;;;;5111382;27;20545;-70
2022/12/09 09:33:31;;;;;;;;;;;20.40;38.70;;;;;;5077779;28;20018;-70
2022/12/09 09:35:58;;;;;;;;;;;20.50;39.00;;;;;;5093690;28;20650;-70
2022/12/09 09:38:24;;;;;;;;;;;20.40;38.90;;;;;;5077409;28;19931;-70
2022/12/09 09:40:50;;;;;;;;;;;20.40;38.70;;;;;;5080483;28;20006;-70
2022/12/09 09:43:18;;;;;;;;;;;20.50;38.50;;;;;;5097899;28;19924;-70
2022/12/09 09:45:44;;;;;;;;;;;20.60;38.30;;;;;;5076488;28;19927;-70
2022/12/09 09:48:13;;;;;;;;;;;20.60;38.20;;;;;;5095395;28;19944;-70
2022/12/09 09:53:29;;;;;;;;;;;20.60;38.00;;;;;;5073012;28;19943;-69
2022/12/09 09:55:58;;;;;;;;;;;20.70;37.90;;;;;;5073563;28;19921;-69
2022/12/09 09:58:43;;;;;;;;;;;20.60;37.90;;;;;;5071540;28;19925;-68
2022/12/09 10:01:11;;;;;;;;;;;20.70;37.90;;;;;;5069675;28;19920;-67
2022/12/09 10:03:48;;;;;;;;;;;20.60;37.90;;;;;;5068889;28;20008;-72
2022/12/09 10:06:19;;;;;;;;;;;20.70;37.90;;;;;;5071427;28;19924;-67
2022/12/09 10:08:54;;;;;;;;;;;20.80;37.70;;;;;;5071024;28;20392;-71
2022/12/09 10:11:27;;;;;;;;;;;20.90;37.60;;;;;;5072635;28;19929;-68
2022/12/09 10:13:57;;;;;;;;;;;20.90;37.50;;;;;;5070391;28;19924;-69
2022/12/09 10:16:43;;;;;;;;;;;20.90;37.50;;;;;;5069729;28;19960;-67
2022/12/09 10:21:51;;;;;;;;;;;21.20;37.40;;;;;;5065361;27;19925;-68
2022/12/09 10:24:21;;;;;;;;;;;21.60;37.00;;;;;;5055723;28;20402;-73
2022/12/09 10:26:52;;;;;;;;;;;22.10;36.40;;;;;;5051395;28;19930;-77
2022/12/09 10:29:23;;;;;;;;;;;22.90;35.60;;;;;;5069253;28;20016;-73
2022/12/09 10:31:49;;;;;;;;;;;23.60;34.50;;;;;;5090128;28;19933;-73
2022/12/09 10:34:14;;;;;;;;;;;24.30;33.70;;;;;;5052602;28;20536;-73
2022/12/09 10:36:42;;;;;;;;;;;24.70;33.00;;;;;;5055657;28;19981;-70
2022/12/09 10:39:09;;;;;;;;;;;25.20;32.40;;;;;;5087446;28;19925;-72
2022/12/09 10:44:28;;;;;;;;;;;25.70;31.70;;;;;;5053330;28;20457;-74
2022/12/09 10:46:56;;;;;;;;;;;25.80;31.50;;;;;;5087274;28;19925;-72
2022/12/09 10:49:21;;;;;;;;;;;25.60;31.70;;;;;;5052391;28;19935;-74
2022/12/09 10:51:48;;;;;;;;;;;25.20;31.90;;;;;;5050994;28;19924;-72
2022/12/09 10:54:34;;;;;;;;;;;25.00;32.30;;;;;;5088631;28;19955;-74
2022/12/09 11:00:06;;;;;;;;;;;24.50;32.70;;;;;;5088967;27;20661;-74
2022/12/09 11:02:33;;;;;;;;;;;24.30;33.10;;;;;;5064912;28;20034;-68
2022/12/09 11:05:18;;;;;;;;;;;24.10;33.40;;;;;;5077432;28;20414;-67
2022/12/09 11:07:48;;;;;;;;;;;23.90;33.50;;;;;;5060505;28;20015;-68
2022/12/09 11:10:16;;;;;;;;;;;23.80;33.80;;;;;;5060980;28;19920;-67
2022/12/09 11:12:42;;;;;;;;;;;23.70;33.90;;;;;;5063259;28;19931;-68
2022/12/09 11:17:54;;;;;;;;;;;23.40;34.50;;;;;;5085579;27;20007;-67
2022/12/09 11:20:21;;;;;;;;;;;23.10;35.00;;;;;;5084902;28;19952;-67
2022/12/09 11:23:07;;;;;;;;;;;23.10;35.30;;;;;;5080887;28;19928;-66
2022/12/09 11:25:33;;;;;;;;;;;23.90;35.80;;;;;;5073833;28;20014;-67
2022/12/09 11:28:00;;;;;;;;;;;23.20;35.30;;;;;;5094741;28;19935;-67
2022/12/09 11:33:20;;;;;;;;;;;23.30;35.30;;;;;;5091189;27;19920;-67
2022/12/09 11:38:29;;;;;;;;;;;23.50;34.90;;;;;;5069166;28;19921;-67
2022/12/09 11:41:04;;;;;;;;;;;23.60;34.60;;;;;;5059107;28;19920;-70
2022/12/09 11:43:30;;;;;;;;;;;23.80;34.30;;;;;;5068879;28;19928;-75
2022/12/09 11:45:57;;;;;;;;;;;23.70;34.10;;;;;;5037357;28;20532;-72
2022/12/09 11:48:27;;;;;;;;;;;23.60;34.10;;;;;;5040932;28;19929;-68
2022/12/09 11:50:53;;;;;;;;;;;23.50;34.30;;;;;;5072603;28;19931;-67
2022/12/09 11:53:25;;;;;;;;;;;23.40;34.40;;;;;;5055736;28;20151;-69
2022/12/09 11:55:52;;;;;;;;;;;23.30;34.50;;;;;;5052589;28;19931;-69
2022/12/09 11:58:22;;;;;;;;;;;23.40;34.50;;;;;;5074819;28;20297;-70
2022/12/09 12:00:50;;;;;;;;;;;23.50;34.60;;;;;;5056831;28;19925;-69
2022/12/09 12:03:19;;;;;;;;;;;23.50;34.70;;;;;;5055124;28;19925;-70
2022/12/09 12:05:47;;;;;;;;;;;23.50;34.80;;;;;;5054381;28;19951;-71
2022/12/09 12:08:32;;;;;;;;;;;23.40;34.80;;;;;;5059636;28;19931;-70
2022/12/09 12:11:18;;;;;;;;;;;23.50;34.90;;;;;;5056060;28;20431;-70
2022/12/09 12:13:44;;;;;;;;;;;23.60;35.00;;;;;;5054602;28;19925;-71
2022/12/09 12:16:16;;;;;;;;;;;23.60;34.90;;;;;;5061080;28;20459;-70
2022/12/09 12:18:48;;;;;;;;;;;23.60;34.80;;;;;;5060383;28;20014;-67
2022/12/09 12:21:34;;;;;;;;;;;23.70;34.80;;;;;;5052565;28;20452;-72
2022/12/09 12:29:39;;;;;;;;;;;24.90;34.70;;;;;;5113912;27;1857120;-67
2022/12/09 12:32:24;;;;;;;;;;;24.30;33.90;;;;;;5149156;27;19973;-68
2022/12/09 12:35:09;;;;;;;;;;;24.50;33.70;;;;;;5142589;27;19923;-67
2022/12/09 12:40:23;;;;;;;;;;;24.50;33.40;;;;;;5088323;27;1855026;-68
2022/12/09 12:46:18;;;;;;;;;;;24.10;34.10;;;;;;5120978;27;20299;-74
2022/12/09 12:48:51;;;;;;;;;;;23.90;34.40;;;;;;5109830;27;19968;-66
2022/12/09 12:51:31;;;;;;;;;;;23.70;34.70;;;;;;5123257;27;19923;-68
2022/12/09 12:56:46;;;;;;;;;;;23.50;35.20;;;;;;5109229;27;1869437;-66
2022/12/09 13:02:02;;;;;;;;;;;23.40;35.70;;;;;;5065076;28;19921;-70
2022/12/09 13:07:16;;;;;;;;;;;23.40;36.30;;;;;;5055289;28;19957;-66
2022/12/09 13:09:48;;;;;;;;;;;23.60;36.40;;;;;;5046182;28;19925;-66
2022/12/09 13:14:56;;;;;;;;;;;24.60;35.30;;;;;;5086303;27;19916;-65
2022/12/09 13:17:27;;;;;;;;;;;25.30;34.30;;;;;;5053754;28;20130;-64
2022/12/09 13:19:55;;;;;;;;;;;25.70;33.50;;;;;;5050269;28;20984;-67
2022/12/09 13:22:23;;;;;;;;;;;26.20;33.00;;;;;;5071643;28;19920;-64
2022/12/09 13:27:34;;;;;;;;;;;27.00;32.30;;;;;;5116811;27;19916;-67
2022/12/09 13:30:01;;;;;;;;;;;27.30;31.90;;;;;;5115326;28;19931;-68
2022/12/09 13:32:47;;;;;;;;;;;27.50;31.30;;;;;;5114836;28;19930;-67
2022/12/09 13:35:17;;;;;;;;;;;27.40;31.00;;;;;;5112646;28;19938;-64
2022/12/09 13:50:59;;;;;;;;;;;25.50;29.10;;;;;;5084545;27;19924;-68
2022/12/09 13:53:28;;;;;;;;;;;24.90;29.60;;;;;;5072923;28;19927;-66
2022/12/09 13:55:56;;;;;;;;;;;24.50;30.00;;;;;;5080597;28;20007;-66
2022/12/09 13:58:28;;;;;;;;;;;24.20;30.50;;;;;;5061399;28;19924;-66
2022/12/09 14:01:13;;;;;;;;;;;23.90;30.90;;;;;;5057456;28;19952;-66
2022/12/09 14:03:45;;;;;;;;;;;23.70;31.40;;;;;;5067609;28;20717;-66
2022/12/09 14:06:30;;;;;;;;;;;23.50;31.80;;;;;;5059592;28;19930;-67
2022/12/09 14:08:59;;;;;;;;;;;23.30;32.10;;;;;;5056909;28;20015;-67
2022/12/09 14:11:39;;;;;;;;;;;23.00;32.60;;;;;;5062684;28;19930;-67
2022/12/09 14:14:24;;;;;;;;;;;22.60;32.90;;;;;;5062731;28;19931;-67
2022/12/09 14:16:52;;;;;;;;;;;22.30;33.30;;;;;;5081519;28;20407;-66
2022/12/09 14:25:21;;;;;;;;;;;21.20;34.20;;;;;;5164138;27;20014;-66
2022/12/09 14:28:06;;;;;;;;;;;21.00;34.60;;;;;;5122559;27;19926;-66
2022/12/09 14:33:32;;;;;;;;;;;20.80;35.10;;;;;;5083348;28;19925;-66
2022/12/09 14:36:03;;;;;;;;;;;20.70;35.20;;;;;;5083431;28;19982;-67
2022/12/09 14:41:27;;;;;;;;;;;20.60;35.60;;;;;;5106434;27;19923;-66
2022/12/09 14:44:03;;;;;;;;;;;20.80;35.50;;;;;;5105314;28;20020;-66
2022/12/09 14:46:31;;;;;;;;;;;21.00;35.10;;;;;;5104193;28;20456;-66
2022/12/09 14:49:01;;;;;;;;;;;21.40;34.70;;;;;;5104047;28;19927;-66
2022/12/09 14:51:35;;;;;;;;;;;21.70;34.30;;;;;;5093450;28;19931;-65
2022/12/09 14:54:04;;;;;;;;;;;21.80;33.90;;;;;;5101942;28;19924;-66
2022/12/09 14:56:30;;;;;;;;;;;22.00;33.60;;;;;;5100391;28;19955;-66
2022/12/09 14:58:59;;;;;;;;;;;22.00;33.40;;;;;;5103659;28;19927;-66
2022/12/09 15:01:25;;;;;;;;;;;21.90;33.50;;;;;;5104543;28;20420;-66
2022/12/09 15:03:53;;;;;;;;;;;21.80;33.70;;;;;;5102891;28;20044;-66
2022/12/09 15:06:19;;;;;;;;;;;21.70;33.90;;;;;;5103215;28;20055;-66
2022/12/09 15:08:45;;;;;;;;;;;21.50;34.10;;;;;;5102905;28;19945;-66
2022/12/09 15:11:19;;;;;;;;;;;21.30;34.40;;;;;;5100265;28;20030;-67
2022/12/09 15:13:46;;;;;;;;;;;21.00;34.70;;;;;;5121409;27;19920;-67
2022/12/09 15:16:14;;;;;;;;;;;21.00;35.20;;;;;;5088341;28;20007;-65
2022/12/09 15:18:40;;;;;;;;;;;20.80;35.40;;;;;;5104523;28;20008;-67
2022/12/09 15:21:06;;;;;;;;;;;20.60;35.70;;;;;;5100457;28;19924;-66
2022/12/09 15:23:38;;;;;;;;;;;20.50;35.90;;;;;;5102830;28;20268;-66
2022/12/09 15:26:05;;;;;;;;;;;20.40;36.10;;;;;;5099742;28;19939;-66
2022/12/09 15:28:32;;;;;;;;;;;20.20;36.30;;;;;;5098678;28;19949;-68
2022/12/09 15:30:59;;;;;;;;;;;20.00;37.30;;;;;;5100484;28;20017;-68
2022/12/09 15:33:25;;;;;;;;;;;19.80;36.90;;;;;;5101328;28;20003;-68
2022/12/09 15:36:10;;;;;;;;;;;19.70;37.00;;;;;;5103464;28;19920;-68
2022/12/09 15:38:39;;;;;;;;;;;19.60;37.20;;;;;;5137948;27;20252;-67